sensor_id;sensor_type;location;lat;lon;timestamp;P1;durP1;ratioP1;P2;durP2;ratioP2
7336;SDS011;54510;42.016;23.098;2024-03-08T00:00:17;8.07;;;3.80;;
7336;SDS011;54510;42.016;23.098;2024-03-08T00:02:45;6.00;;;4.38;;
7336;SDS011;54510;42.016;23.098;2024-03-08T00:05:11;6.72;;;3.72;;
7336;SDS011;54510;42.016;23.098;2024-03-08T00:07:36;8.35;;;3.85;;
7336;SDS011;54510;42.016;23.098;2024-03-08T00:10:05;7.85;;;3.53;;
7336;SDS011;54510;42.016;23.098;2024-03-08T00:12:31;5.70;;;3.17;;
7336;SDS011;54510;42.016;23.098;2024-03-08T00:14:56;6.13;;;3.53;;
7336;SDS011;54510;42.016;23.098;2024-03-08T00:17:21;5.55;;;3.40;;
7336;SDS011;54510;42.016;23.098;2024-03-08T00:19:50;9.70;;;3.83;;
7336;SDS011;54510;42.016;23.098;2024-03-08T00:22:15;4.35;;;3.17;;
7336;SDS011;54510;42.016;23.098;2024-03-08T00:24:41;5.38;;;4.13;;
7336;SDS011;54510;42.016;23.098;2024-03-08T00:27:06;6.93;;;4.05;;
7336;SDS011;54510;42.016;23.098;2024-03-08T00:29:31;6.70;;;3.72;;
7336;SDS011;54510;42.016;23.098;2024-03-08T00:31:56;5.55;;;3.28;;
7336;SDS011;54510;42.016;23.098;2024-03-08T00:34:22;4.85;;;2.92;;
7336;SDS011;54510;42.016;23.098;2024-03-08T00:36:48;4.78;;;3.13;;
7336;SDS011;54510;42.016;23.098;2024-03-08T00:39:14;5.70;;;3.63;;
7336;SDS011;54510;42.016;23.098;2024-03-08T00:41:39;6.57;;;3.45;;
7336;SDS011;54510;42.016;23.098;2024-03-08T00:44:04;7.50;;;3.80;;
7336;SDS011;54510;42.016;23.098;2024-03-08T00:46:29;5.93;;;3.42;;
7336;SDS011;54510;42.016;23.098;2024-03-08T00:48:56;5.90;;;3.30;;
7336;SDS011;54510;42.016;23.098;2024-03-08T00:51:21;6.05;;;4.10;;
7336;SDS011;54510;42.016;23.098;2024-03-08T00:53:47;7.20;;;3.60;;
7336;SDS011;54510;42.016;23.098;2024-03-08T00:56:12;7.82;;;3.92;;
7336;SDS011;54510;42.016;23.098;2024-03-08T00:58:37;6.22;;;3.85;;
7336;SDS011;54510;42.016;23.098;2024-03-08T01:01:03;6.60;;;3.88;;
7336;SDS011;54510;42.016;23.098;2024-03-08T01:03:28;5.53;;;2.72;;
7336;SDS011;54510;42.016;23.098;2024-03-08T01:05:56;5.75;;;3.55;;
7336;SDS011;54510;42.016;23.098;2024-03-08T01:08:21;8.25;;;3.83;;
7336;SDS011;54510;42.016;23.098;2024-03-08T01:10:48;6.13;;;3.45;;
7336;SDS011;54510;42.016;23.098;2024-03-08T01:13:15;7.13;;;3.78;;
7336;SDS011;54510;42.016;23.098;2024-03-08T01:15:40;8.63;;;3.70;;
7336;SDS011;54510;42.016;23.098;2024-03-08T01:18:06;9.00;;;3.97;;
7336;SDS011;54510;42.016;23.098;2024-03-08T01:20:31;6.43;;;3.45;;
7336;SDS011;54510;42.016;23.098;2024-03-08T01:22:57;7.40;;;4.18;;
7336;SDS011;54510;42.016;23.098;2024-03-08T01:25:22;7.38;;;4.25;;
7336;SDS011;54510;42.016;23.098;2024-03-08T01:27:48;5.45;;;3.10;;
7336;SDS011;54510;42.016;23.098;2024-03-08T01:30:13;6.60;;;4.45;;
7336;SDS011;54510;42.016;23.098;2024-03-08T01:32:41;7.82;;;4.38;;
7336;SDS011;54510;42.016;23.098;2024-03-08T01:35:06;7.60;;;4.60;;
7336;SDS011;54510;42.016;23.098;2024-03-08T01:37:32;6.00;;;3.55;;
7336;SDS011;54510;42.016;23.098;2024-03-08T01:39:57;8.80;;;4.20;;
7336;SDS011;54510;42.016;23.098;2024-03-08T01:42:22;6.55;;;3.40;;
7336;SDS011;54510;42.016;23.098;2024-03-08T01:44:47;6.82;;;3.80;;
7336;SDS011;54510;42.016;23.098;2024-03-08T01:47:13;5.60;;;3.78;;
7336;SDS011;54510;42.016;23.098;2024-03-08T01:49:38;5.97;;;3.83;;
7336;SDS011;54510;42.016;23.098;2024-03-08T01:52:04;6.28;;;4.65;;
7336;SDS011;54510;42.016;23.098;2024-03-08T01:54:29;8.30;;;4.03;;
7336;SDS011;54510;42.016;23.098;2024-03-08T01:56:56;6.40;;;4.10;;
7336;SDS011;54510;42.016;23.098;2024-03-08T01:59:22;7.93;;;3.75;;
7336;SDS011;54510;42.016;23.098;2024-03-08T02:01:48;7.03;;;3.92;;
7336;SDS011;54510;42.016;23.098;2024-03-08T02:04:13;7.25;;;4.47;;
7336;SDS011;54510;42.016;23.098;2024-03-08T02:06:38;6.35;;;4.15;;
7336;SDS011;54510;42.016;23.098;2024-03-08T02:09:04;7.57;;;4.18;;
7336;SDS011;54510;42.016;23.098;2024-03-08T02:11:33;6.85;;;4.80;;
7336;SDS011;54510;42.016;23.098;2024-03-08T02:13:58;14.13;;;4.75;;
7336;SDS011;54510;42.016;23.098;2024-03-08T02:16:23;8.43;;;4.45;;
7336;SDS011;54510;42.016;23.098;2024-03-08T02:18:49;9.05;;;4.88;;
7336;SDS011;54510;42.016;23.098;2024-03-08T02:21:14;8.02;;;4.05;;
7336;SDS011;54510;42.016;23.098;2024-03-08T02:23:43;6.85;;;4.53;;
7336;SDS011;54510;42.016;23.098;2024-03-08T02:26:08;6.88;;;4.20;;
7336;SDS011;54510;42.016;23.098;2024-03-08T02:28:33;10.55;;;5.25;;
7336;SDS011;54510;42.016;23.098;2024-03-08T02:30:59;6.85;;;4.57;;
7336;SDS011;54510;42.016;23.098;2024-03-08T02:33:25;8.00;;;4.43;;
7336;SDS011;54510;42.016;23.098;2024-03-08T02:35:51;7.03;;;3.90;;
7336;SDS011;54510;42.016;23.098;2024-03-08T02:38:17;8.75;;;4.78;;
7336;SDS011;54510;42.016;23.098;2024-03-08T02:40:43;9.07;;;4.65;;
7336;SDS011;54510;42.016;23.098;2024-03-08T02:43:09;6.05;;;3.85;;
7336;SDS011;54510;42.016;23.098;2024-03-08T02:45:34;7.88;;;4.72;;
7336;SDS011;54510;42.016;23.098;2024-03-08T02:48:00;7.35;;;5.05;;
7336;SDS011;54510;42.016;23.098;2024-03-08T02:50:25;10.07;;;5.15;;
7336;SDS011;54510;42.016;23.098;2024-03-08T02:52:50;8.00;;;5.10;;
7336;SDS011;54510;42.016;23.098;2024-03-08T02:55:16;9.70;;;4.93;;
7336;SDS011;54510;42.016;23.098;2024-03-08T02:57:41;6.72;;;4.28;;
7336;SDS011;54510;42.016;23.098;2024-03-08T03:00:07;12.45;;;5.18;;
7336;SDS011;54510;42.016;23.098;2024-03-08T03:02:36;11.43;;;5.47;;
7336;SDS011;54510;42.016;23.098;2024-03-08T03:05:01;9.23;;;5.22;;
7336;SDS011;54510;42.016;23.098;2024-03-08T03:07:34;8.70;;;4.75;;
7336;SDS011;54510;42.016;23.098;2024-03-08T03:10:00;10.30;;;5.15;;
7336;SDS011;54510;42.016;23.098;2024-03-08T03:12:26;9.23;;;4.28;;
7336;SDS011;54510;42.016;23.098;2024-03-08T03:14:51;8.85;;;5.05;;
7336;SDS011;54510;42.016;23.098;2024-03-08T03:17:17;10.30;;;5.05;;
7336;SDS011;54510;42.016;23.098;2024-03-08T03:19:42;13.05;;;5.43;;
7336;SDS011;54510;42.016;23.098;2024-03-08T03:22:08;13.50;;;5.72;;
7336;SDS011;54510;42.016;23.098;2024-03-08T03:24:34;10.13;;;4.93;;
7336;SDS011;54510;42.016;23.098;2024-03-08T03:27:03;13.07;;;6.57;;
7336;SDS011;54510;42.016;23.098;2024-03-08T03:29:35;8.80;;;5.38;;
7336;SDS011;54510;42.016;23.098;2024-03-08T03:32:01;16.90;;;5.63;;
7336;SDS011;54510;42.016;23.098;2024-03-08T03:34:27;9.27;;;4.78;;
7336;SDS011;54510;42.016;23.098;2024-03-08T03:36:54;8.57;;;5.55;;
7336;SDS011;54510;42.016;23.098;2024-03-08T03:39:20;11.10;;;5.32;;
7336;SDS011;54510;42.016;23.098;2024-03-08T03:41:47;11.52;;;5.13;;
7336;SDS011;54510;42.016;23.098;2024-03-08T03:44:14;7.65;;;4.28;;
7336;SDS011;54510;42.016;23.098;2024-03-08T03:46:42;7.78;;;4.72;;
7336;SDS011;54510;42.016;23.098;2024-03-08T03:49:10;11.63;;;4.68;;
7336;SDS011;54510;42.016;23.098;2024-03-08T03:51:35;6.70;;;4.15;;
7336;SDS011;54510;42.016;23.098;2024-03-08T03:54:01;9.27;;;4.88;;
7336;SDS011;54510;42.016;23.098;2024-03-08T03:56:28;12.23;;;4.60;;
7336;SDS011;54510;42.016;23.098;2024-03-08T03:58:53;9.50;;;4.25;;
7336;SDS011;54510;42.016;23.098;2024-03-08T04:01:19;9.52;;;4.93;;
7336;SDS011;54510;42.016;23.098;2024-03-08T04:03:44;7.97;;;4.43;;
7336;SDS011;54510;42.016;23.098;2024-03-08T04:06:09;6.50;;;3.20;;
7336;SDS011;54510;42.016;23.098;2024-03-08T04:08:35;7.40;;;4.70;;
7336;SDS011;54510;42.016;23.098;2024-03-08T04:11:00;7.80;;;4.45;;
7336;SDS011;54510;42.016;23.098;2024-03-08T04:13:25;8.20;;;3.80;;
7336;SDS011;54510;42.016;23.098;2024-03-08T04:15:51;6.80;;;4.15;;
7336;SDS011;54510;42.016;23.098;2024-03-08T04:18:16;10.55;;;4.18;;
7336;SDS011;54510;42.016;23.098;2024-03-08T04:20:43;8.68;;;3.83;;
7336;SDS011;54510;42.016;23.098;2024-03-08T04:23:08;9.15;;;4.10;;
7336;SDS011;54510;42.016;23.098;2024-03-08T04:25:33;9.05;;;5.00;;
7336;SDS011;54510;42.016;23.098;2024-03-08T04:27:59;13.13;;;4.80;;
7336;SDS011;54510;42.016;23.098;2024-03-08T04:30:24;7.25;;;4.38;;
7336;SDS011;54510;42.016;23.098;2024-03-08T04:32:49;7.35;;;4.35;;
7336;SDS011;54510;42.016;23.098;2024-03-08T04:35:15;8.85;;;5.05;;
7336;SDS011;54510;42.016;23.098;2024-03-08T04:37:40;9.15;;;5.25;;
7336;SDS011;54510;42.016;23.098;2024-03-08T04:40:05;8.85;;;4.68;;
7336;SDS011;54510;42.016;23.098;2024-03-08T04:42:31;8.05;;;4.85;;
7336;SDS011;54510;42.016;23.098;2024-03-08T04:44:58;9.23;;;4.82;;
7336;SDS011;54510;42.016;23.098;2024-03-08T04:47:23;13.50;;;5.55;;
7336;SDS011;54510;42.016;23.098;2024-03-08T04:49:48;9.32;;;4.63;;
7336;SDS011;54510;42.016;23.098;2024-03-08T04:52:15;13.05;;;5.75;;
7336;SDS011;54510;42.016;23.098;2024-03-08T04:54:40;8.48;;;5.10;;
7336;SDS011;54510;42.016;23.098;2024-03-08T04:57:05;9.13;;;5.55;;
7336;SDS011;54510;42.016;23.098;2024-03-08T04:59:31;10.90;;;5.30;;
7336;SDS011;54510;42.016;23.098;2024-03-08T05:01:56;10.85;;;5.45;;
7336;SDS011;54510;42.016;23.098;2024-03-08T05:04:21;11.57;;;5.75;;
7336;SDS011;54510;42.016;23.098;2024-03-08T05:06:47;13.80;;;5.82;;
7336;SDS011;54510;42.016;23.098;2024-03-08T05:09:13;9.93;;;5.45;;
7336;SDS011;54510;42.016;23.098;2024-03-08T05:11:41;10.52;;;5.72;;
7336;SDS011;54510;42.016;23.098;2024-03-08T05:14:08;12.43;;;5.97;;
7336;SDS011;54510;42.016;23.098;2024-03-08T05:16:33;9.77;;;5.53;;
7336;SDS011;54510;42.016;23.098;2024-03-08T05:18:58;11.57;;;5.32;;
7336;SDS011;54510;42.016;23.098;2024-03-08T05:21:24;13.73;;;5.72;;
7336;SDS011;54510;42.016;23.098;2024-03-08T05:23:50;12.55;;;6.63;;
7336;SDS011;54510;42.016;23.098;2024-03-08T05:26:15;8.82;;;5.97;;
7336;SDS011;54510;42.016;23.098;2024-03-08T05:28:41;14.20;;;6.50;;
7336;SDS011;54510;42.016;23.098;2024-03-08T05:31:06;13.95;;;6.50;;
7336;SDS011;54510;42.016;23.098;2024-03-08T05:33:31;9.93;;;5.90;;
7336;SDS011;54510;42.016;23.098;2024-03-08T05:35:59;10.75;;;6.03;;
7336;SDS011;54510;42.016;23.098;2024-03-08T05:38:25;15.68;;;8.25;;
7336;SDS011;54510;42.016;23.098;2024-03-08T05:40:50;12.50;;;6.85;;
7336;SDS011;54510;42.016;23.098;2024-03-08T05:43:16;14.55;;;6.88;;
7336;SDS011;54510;42.016;23.098;2024-03-08T05:45:44;14.70;;;7.03;;
7336;SDS011;54510;42.016;23.098;2024-03-08T05:48:09;11.73;;;7.32;;
7336;SDS011;54510;42.016;23.098;2024-03-08T05:50:35;11.05;;;6.57;;
7336;SDS011;54510;42.016;23.098;2024-03-08T05:53:00;13.10;;;6.75;;
7336;SDS011;54510;42.016;23.098;2024-03-08T05:55:25;13.45;;;7.25;;
7336;SDS011;54510;42.016;23.098;2024-03-08T05:57:50;11.70;;;7.10;;
7336;SDS011;54510;42.016;23.098;2024-03-08T06:00:16;11.02;;;6.65;;
7336;SDS011;54510;42.016;23.098;2024-03-08T06:02:41;12.40;;;7.00;;
7336;SDS011;54510;42.016;23.098;2024-03-08T06:05:10;12.00;;;6.43;;
7336;SDS011;54510;42.016;23.098;2024-03-08T06:07:35;16.13;;;6.90;;
7336;SDS011;54510;42.016;23.098;2024-03-08T06:10:01;11.65;;;6.03;;
7336;SDS011;54510;42.016;23.098;2024-03-08T06:12:26;11.75;;;6.85;;
7336;SDS011;54510;42.016;23.098;2024-03-08T06:14:54;13.20;;;7.88;;
7336;SDS011;54510;42.016;23.098;2024-03-08T06:17:19;12.07;;;6.85;;
7336;SDS011;54510;42.016;23.098;2024-03-08T06:19:44;14.20;;;7.47;;
7336;SDS011;54510;42.016;23.098;2024-03-08T06:22:09;15.18;;;6.57;;
7336;SDS011;54510;42.016;23.098;2024-03-08T06:24:35;15.65;;;7.55;;
7336;SDS011;54510;42.016;23.098;2024-03-08T06:27:02;17.10;;;7.90;;
7336;SDS011;54510;42.016;23.098;2024-03-08T06:29:27;16.67;;;7.35;;
7336;SDS011;54510;42.016;23.098;2024-03-08T06:31:53;16.77;;;8.07;;
7336;SDS011;54510;42.016;23.098;2024-03-08T06:34:18;18.77;;;7.72;;
7336;SDS011;54510;42.016;23.098;2024-03-08T06:36:44;12.80;;;6.82;;
7336;SDS011;54510;42.016;23.098;2024-03-08T06:39:09;21.65;;;8.50;;
7336;SDS011;54510;42.016;23.098;2024-03-08T06:41:35;12.70;;;7.35;;
7336;SDS011;54510;42.016;23.098;2024-03-08T06:44:01;14.75;;;5.45;;
7336;SDS011;54510;42.016;23.098;2024-03-08T06:46:26;12.88;;;5.57;;
7336;SDS011;54510;42.016;23.098;2024-03-08T06:48:51;6.05;;;3.70;;
7336;SDS011;54510;42.016;23.098;2024-03-08T06:51:17;12.27;;;5.72;;
7336;SDS011;54510;42.016;23.098;2024-03-08T06:53:43;13.25;;;6.82;;
7336;SDS011;54510;42.016;23.098;2024-03-08T06:56:08;22.77;;;10.77;;
7336;SDS011;54510;42.016;23.098;2024-03-08T06:58:33;19.08;;;10.60;;
7336;SDS011;54510;42.016;23.098;2024-03-08T07:00:58;15.10;;;8.85;;
7336;SDS011;54510;42.016;23.098;2024-03-08T07:03:26;17.02;;;8.18;;
7336;SDS011;54510;42.016;23.098;2024-03-08T07:05:52;13.50;;;7.57;;
7336;SDS011;54510;42.016;23.098;2024-03-08T07:08:17;16.60;;;8.80;;
7336;SDS011;54510;42.016;23.098;2024-03-08T07:10:43;16.67;;;8.57;;
7336;SDS011;54510;42.016;23.098;2024-03-08T07:13:10;22.05;;;11.43;;
7336;SDS011;54510;42.016;23.098;2024-03-08T07:15:35;12.95;;;7.57;;
7336;SDS011;54510;42.016;23.098;2024-03-08T07:18:01;17.65;;;11.10;;
7336;SDS011;54510;42.016;23.098;2024-03-08T07:20:26;16.20;;;8.60;;
7336;SDS011;54510;42.016;23.098;2024-03-08T07:22:51;8.73;;;4.95;;
7336;SDS011;54510;42.016;23.098;2024-03-08T07:25:16;10.05;;;6.28;;
7336;SDS011;54510;42.016;23.098;2024-03-08T07:27:46;14.45;;;6.35;;
7336;SDS011;54510;42.016;23.098;2024-03-08T07:30:12;9.85;;;6.05;;
7336;SDS011;54510;42.016;23.098;2024-03-08T07:32:37;9.60;;;6.18;;
7336;SDS011;54510;42.016;23.098;2024-03-08T07:35:03;10.00;;;5.35;;
7336;SDS011;54510;42.016;23.098;2024-03-08T07:37:30;12.25;;;6.18;;
7336;SDS011;54510;42.016;23.098;2024-03-08T07:39:56;15.73;;;9.10;;
7336;SDS011;54510;42.016;23.098;2024-03-08T07:42:23;11.45;;;7.55;;
7336;SDS011;54510;42.016;23.098;2024-03-08T07:44:48;16.08;;;9.55;;
7336;SDS011;54510;42.016;23.098;2024-03-08T07:47:15;14.30;;;7.82;;
7336;SDS011;54510;42.016;23.098;2024-03-08T07:49:42;9.98;;;5.75;;
7336;SDS011;54510;42.016;23.098;2024-03-08T07:52:08;12.98;;;6.57;;
7336;SDS011;54510;42.016;23.098;2024-03-08T07:54:33;16.05;;;7.80;;
7336;SDS011;54510;42.016;23.098;2024-03-08T07:57:00;10.50;;;6.32;;
7336;SDS011;54510;42.016;23.098;2024-03-08T07:59:26;10.35;;;6.22;;
7336;SDS011;54510;42.016;23.098;2024-03-08T08:01:51;6.32;;;4.45;;
7336;SDS011;54510;42.016;23.098;2024-03-08T08:04:17;11.75;;;5.32;;
7336;SDS011;54510;42.016;23.098;2024-03-08T08:06:43;13.32;;;7.82;;
7336;SDS011;54510;42.016;23.098;2024-03-08T08:09:08;11.70;;;6.30;;
7336;SDS011;54510;42.016;23.098;2024-03-08T08:11:42;12.57;;;6.82;;
7336;SDS011;54510;42.016;23.098;2024-03-08T08:14:08;13.48;;;6.10;;
7336;SDS011;54510;42.016;23.098;2024-03-08T08:16:34;9.10;;;4.68;;
7336;SDS011;54510;42.016;23.098;2024-03-08T08:19:01;9.30;;;5.05;;
7336;SDS011;54510;42.016;23.098;2024-03-08T08:21:28;9.38;;;5.40;;
7336;SDS011;54510;42.016;23.098;2024-03-08T08:23:54;11.18;;;6.53;;
7336;SDS011;54510;42.016;23.098;2024-03-08T08:26:19;14.07;;;6.40;;
7336;SDS011;54510;42.016;23.098;2024-03-08T08:28:46;10.48;;;6.10;;
7336;SDS011;54510;42.016;23.098;2024-03-08T08:31:11;9.85;;;5.57;;
7336;SDS011;54510;42.016;23.098;2024-03-08T08:33:36;13.57;;;5.47;;
7336;SDS011;54510;42.016;23.098;2024-03-08T08:36:02;8.95;;;4.57;;
7336;SDS011;54510;42.016;23.098;2024-03-08T08:38:28;12.40;;;5.80;;
7336;SDS011;54510;42.016;23.098;2024-03-08T08:40:53;8.70;;;4.20;;
7336;SDS011;54510;42.016;23.098;2024-03-08T08:43:19;12.38;;;4.90;;
7336;SDS011;54510;42.016;23.098;2024-03-08T08:45:46;26.98;;;15.07;;
7336;SDS011;54510;42.016;23.098;2024-03-08T08:48:13;73.88;;;41.53;;
7336;SDS011;54510;42.016;23.098;2024-03-08T08:50:39;20.23;;;8.85;;
7336;SDS011;54510;42.016;23.098;2024-03-08T08:53:04;12.82;;;7.13;;
7336;SDS011;54510;42.016;23.098;2024-03-08T08:55:31;8.68;;;4.70;;
7336;SDS011;54510;42.016;23.098;2024-03-08T08:58:00;6.97;;;3.65;;
7336;SDS011;54510;42.016;23.098;2024-03-08T09:00:26;10.05;;;6.25;;
7336;SDS011;54510;42.016;23.098;2024-03-08T09:02:52;13.40;;;9.52;;
7336;SDS011;54510;42.016;23.098;2024-03-08T09:05:20;10.18;;;4.13;;
7336;SDS011;54510;42.016;23.098;2024-03-08T09:07:46;5.13;;;2.72;;
7336;SDS011;54510;42.016;23.098;2024-03-08T09:10:11;4.93;;;1.98;;
7336;SDS011;54510;42.016;23.098;2024-03-08T09:12:38;6.97;;;2.70;;
7336;SDS011;54510;42.016;23.098;2024-03-08T09:15:04;4.03;;;2.78;;
7336;SDS011;54510;42.016;23.098;2024-03-08T09:17:30;8.38;;;5.25;;
7336;SDS011;54510;42.016;23.098;2024-03-08T09:19:55;6.13;;;3.17;;
7336;SDS011;54510;42.016;23.098;2024-03-08T09:22:22;5.50;;;3.17;;
7336;SDS011;54510;42.016;23.098;2024-03-08T09:24:47;8.50;;;3.22;;
7336;SDS011;54510;42.016;23.098;2024-03-08T09:27:13;8.00;;;5.15;;
7336;SDS011;54510;42.016;23.098;2024-03-08T09:29:38;15.60;;;11.02;;
7336;SDS011;54510;42.016;23.098;2024-03-08T09:32:04;13.73;;;8.35;;
7336;SDS011;54510;42.016;23.098;2024-03-08T09:34:29;13.98;;;6.00;;
7336;SDS011;54510;42.016;23.098;2024-03-08T09:36:55;4.97;;;2.38;;
7336;SDS011;54510;42.016;23.098;2024-03-08T09:39:21;11.02;;;5.85;;
7336;SDS011;54510;42.016;23.098;2024-03-08T09:41:47;19.20;;;6.90;;
7336;SDS011;54510;42.016;23.098;2024-03-08T09:44:17;12.95;;;3.70;;
7336;SDS011;54510;42.016;23.098;2024-03-08T09:46:44;5.63;;;1.63;;
7336;SDS011;54510;42.016;23.098;2024-03-08T09:49:12;4.68;;;1.45;;
7336;SDS011;54510;42.016;23.098;2024-03-08T09:51:37;11.48;;;6.38;;
7336;SDS011;54510;42.016;23.098;2024-03-08T09:54:05;3.08;;;1.67;;
7336;SDS011;54510;42.016;23.098;2024-03-08T09:56:32;2.53;;;1.52;;
7336;SDS011;54510;42.016;23.098;2024-03-08T09:58:58;3.15;;;2.13;;
7336;SDS011;54510;42.016;23.098;2024-03-08T10:01:42;2.10;;;1.45;;
7336;SDS011;54510;42.016;23.098;2024-03-08T10:04:07;3.20;;;2.00;;
7336;SDS011;54510;42.016;23.098;2024-03-08T10:06:34;8.25;;;4.97;;
7336;SDS011;54510;42.016;23.098;2024-03-08T10:09:00;14.68;;;8.20;;
7336;SDS011;54510;42.016;23.098;2024-03-08T10:11:25;7.85;;;2.72;;
7336;SDS011;54510;42.016;23.098;2024-03-08T10:13:52;9.95;;;4.90;;
7336;SDS011;54510;42.016;23.098;2024-03-08T10:16:17;6.53;;;2.90;;
7336;SDS011;54510;42.016;23.098;2024-03-08T10:18:42;8.85;;;3.50;;
7336;SDS011;54510;42.016;23.098;2024-03-08T10:21:10;2.58;;;1.58;;
7336;SDS011;54510;42.016;23.098;2024-03-08T10:23:35;4.65;;;2.28;;
7336;SDS011;54510;42.016;23.098;2024-03-08T10:26:17;3.53;;;2.20;;
7336;SDS011;54510;42.016;23.098;2024-03-08T10:28:45;6.30;;;2.55;;
7336;SDS011;54510;42.016;23.098;2024-03-08T10:31:12;11.65;;;6.65;;
7336;SDS011;54510;42.016;23.098;2024-03-08T10:33:38;4.00;;;2.67;;
7336;SDS011;54510;42.016;23.098;2024-03-08T10:36:05;4.25;;;2.53;;
7336;SDS011;54510;42.016;23.098;2024-03-08T10:38:31;8.85;;;4.72;;
7336;SDS011;54510;42.016;23.098;2024-03-08T10:41:00;10.23;;;6.32;;
7336;SDS011;54510;42.016;23.098;2024-03-08T10:43:26;2.53;;;1.75;;
7336;SDS011;54510;42.016;23.098;2024-03-08T10:48:45;12.55;;;8.20;;
7336;SDS011;54510;42.016;23.098;2024-03-08T10:51:14;5.28;;;3.17;;
7336;SDS011;54510;42.016;23.098;2024-03-08T10:53:40;3.60;;;2.03;;
7336;SDS011;54510;42.016;23.098;2024-03-08T10:56:06;2.67;;;1.30;;
7336;SDS011;54510;42.016;23.098;2024-03-08T10:58:32;2.85;;;1.95;;
7336;SDS011;54510;42.016;23.098;2024-03-08T11:00:59;3.00;;;1.75;;
7336;SDS011;54510;42.016;23.098;2024-03-08T11:06:05;5.97;;;2.13;;
7336;SDS011;54510;42.016;23.098;2024-03-08T11:08:32;5.18;;;1.70;;
7336;SDS011;54510;42.016;23.098;2024-03-08T11:10:58;3.50;;;1.23;;
7336;SDS011;54510;42.016;23.098;2024-03-08T11:15:59;22.25;;;13.57;;
7336;SDS011;54510;42.016;23.098;2024-03-08T11:18:25;10.07;;;4.40;;
7336;SDS011;54510;42.016;23.098;2024-03-08T11:20:51;12.85;;;4.28;;
7336;SDS011;54510;42.016;23.098;2024-03-08T11:23:18;4.80;;;1.80;;
7336;SDS011;54510;42.016;23.098;2024-03-08T11:25:47;2.25;;;1.50;;
7336;SDS011;54510;42.016;23.098;2024-03-08T11:28:18;1.77;;;1.05;;
7336;SDS011;54510;42.016;23.098;2024-03-08T11:30:45;7.97;;;2.17;;
7336;SDS011;54510;42.016;23.098;2024-03-08T11:33:12;1.83;;;1.25;;
7336;SDS011;54510;42.016;23.098;2024-03-08T11:35:38;3.92;;;1.55;;
7336;SDS011;54510;42.016;23.098;2024-03-08T11:38:03;2.75;;;1.75;;
7336;SDS011;54510;42.016;23.098;2024-03-08T11:40:29;3.53;;;2.08;;
7336;SDS011;54510;42.016;23.098;2024-03-08T11:42:54;5.00;;;1.88;;
7336;SDS011;54510;42.016;23.098;2024-03-08T11:45:20;3.25;;;1.60;;
7336;SDS011;54510;42.016;23.098;2024-03-08T11:47:49;2.55;;;1.13;;
7336;SDS011;54510;42.016;23.098;2024-03-08T11:50:14;2.55;;;1.50;;
7336;SDS011;54510;42.016;23.098;2024-03-08T11:52:39;2.15;;;1.27;;
7336;SDS011;54510;42.016;23.098;2024-03-08T11:55:05;2.40;;;1.52;;
7336;SDS011;54510;42.016;23.098;2024-03-08T11:57:31;3.55;;;1.70;;
7336;SDS011;54510;42.016;23.098;2024-03-08T11:59:57;5.32;;;2.03;;
7336;SDS011;54510;42.016;23.098;2024-03-08T12:02:23;2.58;;;1.40;;
7336;SDS011;54510;42.016;23.098;2024-03-08T12:04:58;6.25;;;3.90;;
7336;SDS011;54510;42.016;23.098;2024-03-08T12:07:30;3.13;;;2.10;;
7336;SDS011;54510;42.016;23.098;2024-03-08T12:10:17;4.00;;;1.50;;
7336;SDS011;54510;42.016;23.098;2024-03-08T12:12:43;2.83;;;1.65;;
7336;SDS011;54510;42.016;23.098;2024-03-08T12:15:09;4.13;;;2.05;;
7336;SDS011;54510;42.016;23.098;2024-03-08T12:17:36;8.55;;;1.30;;
7336;SDS011;54510;42.016;23.098;2024-03-08T12:20:11;4.43;;;1.40;;
7336;SDS011;54510;42.016;23.098;2024-03-08T12:22:40;4.43;;;1.88;;
7336;SDS011;54510;42.016;23.098;2024-03-08T12:25:06;2.60;;;1.40;;
7336;SDS011;54510;42.016;23.098;2024-03-08T12:27:35;3.58;;;0.95;;
7336;SDS011;54510;42.016;23.098;2024-03-08T12:30:14;6.78;;;1.30;;
7336;SDS011;54510;42.016;23.098;2024-03-08T12:32:40;5.75;;;1.30;;
7336;SDS011;54510;42.016;23.098;2024-03-08T12:35:07;3.05;;;1.15;;
7336;SDS011;54510;42.016;23.098;2024-03-08T12:37:35;3.92;;;1.85;;
7336;SDS011;54510;42.016;23.098;2024-03-08T12:40:00;3.38;;;1.80;;
7336;SDS011;54510;42.016;23.098;2024-03-08T12:42:25;3.35;;;1.23;;
7336;SDS011;54510;42.016;23.098;2024-03-08T12:44:51;1.58;;;1.10;;
7336;SDS011;54510;42.016;23.098;2024-03-08T12:47:16;1.48;;;0.85;;
7336;SDS011;54510;42.016;23.098;2024-03-08T12:49:41;1.88;;;0.82;;
7336;SDS011;54510;42.016;23.098;2024-03-08T12:52:08;3.67;;;0.75;;
7336;SDS011;54510;42.016;23.098;2024-03-08T12:54:35;1.77;;;0.88;;
7336;SDS011;54510;42.016;23.098;2024-03-08T12:57:00;3.70;;;0.93;;
7336;SDS011;54510;42.016;23.098;2024-03-08T12:59:25;1.58;;;0.73;;
7336;SDS011;54510;42.016;23.098;2024-03-08T13:01:51;3.80;;;1.30;;
7336;SDS011;54510;42.016;23.098;2024-03-08T13:04:18;2.35;;;1.00;;
7336;SDS011;54510;42.016;23.098;2024-03-08T13:06:43;3.00;;;0.88;;
7336;SDS011;54510;42.016;23.098;2024-03-08T13:09:11;2.83;;;0.65;;
7336;SDS011;54510;42.016;23.098;2024-03-08T13:11:37;3.17;;;0.75;;
7336;SDS011;54510;42.016;23.098;2024-03-08T13:14:05;4.40;;;1.02;;
7336;SDS011;54510;42.016;23.098;2024-03-08T13:16:30;3.67;;;1.20;;
7336;SDS011;54510;42.016;23.098;2024-03-08T13:18:56;2.80;;;1.08;;
7336;SDS011;54510;42.016;23.098;2024-03-08T13:21:22;3.88;;;1.83;;
7336;SDS011;54510;42.016;23.098;2024-03-08T13:23:49;2.67;;;1.27;;
7336;SDS011;54510;42.016;23.098;2024-03-08T13:26:14;3.65;;;0.98;;
7336;SDS011;54510;42.016;23.098;2024-03-08T13:28:43;3.85;;;1.40;;
7336;SDS011;54510;42.016;23.098;2024-03-08T13:31:08;2.25;;;1.05;;
7336;SDS011;54510;42.016;23.098;2024-03-08T13:33:37;1.55;;;0.57;;
7336;SDS011;54510;42.016;23.098;2024-03-08T13:36:04;3.17;;;0.95;;
7336;SDS011;54510;42.016;23.098;2024-03-08T13:38:31;1.70;;;0.80;;
7336;SDS011;54510;42.016;23.098;2024-03-08T13:40:58;2.20;;;1.05;;
7336;SDS011;54510;42.016;23.098;2024-03-08T13:43:23;5.15;;;1.67;;
7336;SDS011;54510;42.016;23.098;2024-03-08T13:45:49;4.65;;;1.10;;
7336;SDS011;54510;42.016;23.098;2024-03-08T13:48:14;2.60;;;0.82;;
7336;SDS011;54510;42.016;23.098;2024-03-08T13:50:40;5.28;;;1.83;;
7336;SDS011;54510;42.016;23.098;2024-03-08T13:53:05;4.43;;;1.55;;
7336;SDS011;54510;42.016;23.098;2024-03-08T13:55:30;2.03;;;1.23;;
7336;SDS011;54510;42.016;23.098;2024-03-08T13:57:56;4.75;;;1.10;;
7336;SDS011;54510;42.016;23.098;2024-03-08T14:00:22;3.75;;;1.27;;
7336;SDS011;54510;42.016;23.098;2024-03-08T14:02:48;3.75;;;1.70;;
7336;SDS011;54510;42.016;23.098;2024-03-08T14:05:14;1.42;;;1.00;;
7336;SDS011;54510;42.016;23.098;2024-03-08T14:07:41;4.60;;;1.17;;
7336;SDS011;54510;42.016;23.098;2024-03-08T14:10:06;1.38;;;0.60;;
7336;SDS011;54510;42.016;23.098;2024-03-08T14:12:32;1.48;;;0.75;;
7336;SDS011;54510;42.016;23.098;2024-03-08T14:14:57;9.18;;;2.05;;
7336;SDS011;54510;42.016;23.098;2024-03-08T14:17:25;3.90;;;1.10;;
7336;SDS011;54510;42.016;23.098;2024-03-08T14:19:52;4.03;;;1.92;;
7336;SDS011;54510;42.016;23.098;2024-03-08T14:22:17;2.03;;;1.08;;
7336;SDS011;54510;42.016;23.098;2024-03-08T14:24:43;2.60;;;1.05;;
7336;SDS011;54510;42.016;23.098;2024-03-08T14:27:09;3.00;;;1.10;;
7336;SDS011;54510;42.016;23.098;2024-03-08T14:29:35;1.52;;;0.68;;
7336;SDS011;54510;42.016;23.098;2024-03-08T14:32:00;2.67;;;1.08;;
7336;SDS011;54510;42.016;23.098;2024-03-08T14:34:26;1.85;;;0.85;;
7336;SDS011;54510;42.016;23.098;2024-03-08T14:36:54;4.13;;;1.42;;
7336;SDS011;54510;42.016;23.098;2024-03-08T14:39:19;4.15;;;0.82;;
7336;SDS011;54510;42.016;23.098;2024-03-08T14:41:51;4.93;;;1.23;;
7336;SDS011;54510;42.016;23.098;2024-03-08T14:44:19;3.63;;;1.17;;